• Join FlightAware (Why Join?)
  • Login
  • US Flag 
07:35PM EDT


 

Airport Tracker/Info


-or-


 

Live Flight TrackerFlight Track Log ✈ DAL3741 ✈ 30-Apr-2013 ✈ KMSP - KCWA

Flight Track Log - Related Links

Times and Time Zones

All times are in EDT time to prevent confusion due to time zone crossing. See the DAL3741 flight status page for this flight to view local times or setup timezone preferences in your user account.

Time Position Orientation Groundspeed Altitude Reporting Facility
EDT Latitude Longitude Course Direction KTS MPH feet Rate Location/Type
03:22PM 44.9000 -93.2333 66° East 148 170 2,200  Level Minneapolis TRACON
03:23PM 44.9464 -93.2475 348° North 187 215 3,500 1,980 Climbing Minneapolis Center
03:24PM 45.0047 -93.2575 353° North 217 250 6,000 1,980 Climbing Minneapolis Center
03:25PM 44.9771 -92.8319 69° East  Level FlightAware Approximate
03:25PM 45.0803 -93.2178 20° North 292 336 7,600  Level Minneapolis Center
03:26PM 45.0190 -92.6759 66° East  Level FlightAware Approximate
03:26PM 45.1625 -93.1736 21° North 314 361 9,600  Level Minneapolis Center
03:27PM 45.0661 -92.5228 66° East  Level FlightAware Approximate
03:27PM 45.2408 -93.0992 34° Northeast 349 402 11,800  Level Minneapolis Center
03:28PM 45.2542 -92.9594 82° East 358 412 13,800 1,440 Climbing Minneapolis Center
03:29PM 45.2525 -92.7767 91° East 387 445 14,800 1,140 Climbing Minneapolis Center
03:30PM 45.2425 -92.6181 95° East 400 460 16,200 1,020 Climbing Minneapolis Center
03:31PM 45.2194 -92.4631 102° East 401 461 17,000 300 Climbing Minneapolis Center
03:32PM 45.1953 -92.2994 102° East 422 486 16,900  Descending Minneapolis Center
03:33PM 45.1703 -92.1356 102° East 425 489 17,000  Climbing Minneapolis Center
03:34PM 45.1458 -91.9769 102° East 415 478 17,000  Level Minneapolis Center
03:35PM 45.1225 -91.8181 102° East 414 476 17,000  Level Minneapolis Center
03:36PM 45.0983 -91.6608 102° East 411 473 17,000  Level Minneapolis Center
03:37PM 45.0697 -91.4772 102° East 411 473 17,000  Level Minneapolis Center
03:38PM 45.0444 -91.3133 102° East 410 472 17,000  Level Minneapolis Center
03:39PM 45.0181 -91.1483 103° East 411 473 17,000  Level Minneapolis Center
03:40PM 44.9947 -90.9972 102° East 410 472 17,000 -600 Level Minneapolis Center
03:42PM 44.9678 -90.8319 103° East 411 473 15,800 -1,740 Descending Minneapolis Center
03:43PM 44.9405 -90.7140 108° East  Level FlightAware Approximate
03:44PM 44.9208 -90.5400 108° East 378 435 11,700  Level Minneapolis Center
03:45PM 44.8975 -90.3931 103° East 368 423 10,200 -1,500 Descending Minneapolis Center
03:46PM 44.8764 -90.2675 103° East 322 371 8,700 -1,560 Descending Minneapolis Center
03:47PM 44.8572 -90.1478 103° East 302 348 7,100 -1,500 Descending Minneapolis Center
03:48PM 44.8389 -90.0422 104° East 290 334 5,700 -1,500 Descending Minneapolis Center
03:49PM 44.8208 -89.9264 102° East 289 333 4,100 -1,380 Descending Minneapolis Center
03:50PM 44.8011 -89.8122 104° East 289 333 2,900 -540 Descending Minneapolis Center
03:51PM 44.8061 -89.7389 84° East 249 287 3,000 60 Climbing Minneapolis Center